sensor_id;sensor_type;location;lat;lon;timestamp;pressure;altitude;pressure_sealevel;temperature;humidity
19208;BME280;9737;59.466;18.036;2022-07-22T00:02:26;102064.31;;;20.40;37.42
19208;BME280;9737;59.466;18.036;2022-07-22T00:04:55;102039.50;;;20.35;37.39
19208;BME280;9737;59.466;18.036;2022-07-22T00:07:28;102027.28;;;20.31;37.54
19208;BME280;9737;59.466;18.036;2022-07-22T00:09:57;101989.41;;;20.22;37.57
19208;BME280;9737;59.466;18.036;2022-07-22T00:12:25;101959.38;;;20.15;37.73
19208;BME280;9737;59.466;18.036;2022-07-22T00:14:55;101932.22;;;20.07;37.98
19208;BME280;9737;59.466;18.036;2022-07-22T00:17:25;101919.41;;;19.99;37.96
19208;BME280;9737;59.466;18.036;2022-07-22T00:19:56;101892.69;;;19.96;38.09
19208;BME280;9737;59.466;18.036;2022-07-22T00:22:28;101875.31;;;19.89;38.18
19208;BME280;9737;59.466;18.036;2022-07-22T00:24:56;101921.72;;;20.04;38.33
19208;BME280;9737;59.466;18.036;2022-07-22T00:27:24;101987.25;;;20.16;38.38
19208;BME280;9737;59.466;18.036;2022-07-22T00:29:57;102027.69;;;20.27;38.59
19208;BME280;9737;59.466;18.036;2022-07-22T00:32:27;102030.03;;;20.10;38.69
19208;BME280;9737;59.466;18.036;2022-07-22T00:34:57;102136.31;;;20.51;38.78
19208;BME280;9737;59.466;18.036;2022-07-22T00:37:27;102166.66;;;20.55;39.08
19208;BME280;9737;59.466;18.036;2022-07-22T00:39:56;102233.44;;;20.73;39.08
19208;BME280;9737;59.466;18.036;2022-07-22T00:42:26;102275.06;;;20.82;39.25
19208;BME280;9737;59.466;18.036;2022-07-22T00:44:56;102267.91;;;20.81;39.42
19208;BME280;9737;59.466;18.036;2022-07-22T00:47:28;102254.78;;;20.77;39.46
19208;BME280;9737;59.466;18.036;2022-07-22T00:49:56;102233.72;;;20.70;39.56
19208;BME280;9737;59.466;18.036;2022-07-22T00:52:26;102195.25;;;20.57;39.65
19208;BME280;9737;59.466;18.036;2022-07-22T00:54:58;102165.59;;;20.46;39.76
19208;BME280;9737;59.466;18.036;2022-07-22T00:57:28;102176.84;;;20.51;39.88
19208;BME280;9737;59.466;18.036;2022-07-22T00:59:56;102261.47;;;20.72;40.08
19208;BME280;9737;59.466;18.036;2022-07-22T01:02:28;102217.72;;;20.58;40.24
19208;BME280;9737;59.466;18.036;2022-07-22T01:04:56;102184.22;;;20.49;40.36
19208;BME280;9737;59.466;18.036;2022-07-22T01:07:25;102147.94;;;20.42;40.46
19208;BME280;9737;59.466;18.036;2022-07-22T01:09:53;102110.31;;;20.29;40.46
19208;BME280;9737;59.466;18.036;2022-07-22T01:12:22;102160.47;;;20.43;40.62
19208;BME280;9737;59.466;18.036;2022-07-22T01:14:50;102112.88;;;20.31;40.69
19208;BME280;9737;59.466;18.036;2022-07-22T01:17:19;102065.44;;;20.17;40.77
19208;BME280;9737;59.466;18.036;2022-07-22T01:19:50;102018.94;;;20.04;41.07
19208;BME280;9737;59.466;18.036;2022-07-22T01:22:23;101958.03;;;19.90;41.02
19208;BME280;9737;59.466;18.036;2022-07-22T01:25:00;101894.63;;;19.75;41.08
19208;BME280;9737;59.466;18.036;2022-07-22T01:27:29;101849.09;;;19.61;41.27
19208;BME280;9737;59.466;18.036;2022-07-22T01:29:58;101808.56;;;19.51;41.50
19208;BME280;9737;59.466;18.036;2022-07-22T01:32:27;101778.88;;;19.41;41.67
19208;BME280;9737;59.466;18.036;2022-07-22T01:35:06;101741.19;;;19.30;41.70
19208;BME280;9737;59.466;18.036;2022-07-22T01:37:38;101707.69;;;19.23;41.87
19208;BME280;9737;59.466;18.036;2022-07-22T01:40:09;101663.94;;;19.10;41.92
19208;BME280;9737;59.466;18.036;2022-07-22T01:42:37;101649.03;;;19.06;42.00
19208;BME280;9737;59.466;18.036;2022-07-22T01:45:07;101603.03;;;18.88;41.93
19208;BME280;9737;59.466;18.036;2022-07-22T01:47:36;101590.25;;;18.90;42.16
19208;BME280;9737;59.466;18.036;2022-07-22T01:50:09;101568.13;;;18.86;42.17
19208;BME280;9737;59.466;18.036;2022-07-22T01:52:42;101544.53;;;18.79;42.34
19208;BME280;9737;59.466;18.036;2022-07-22T01:55:12;101537.88;;;18.73;42.40
19208;BME280;9737;59.466;18.036;2022-07-22T01:57:41;101522.69;;;18.72;42.55
19208;BME280;9737;59.466;18.036;2022-07-22T02:00:10;101511.34;;;18.69;42.53
19208;BME280;9737;59.466;18.036;2022-07-22T02:02:40;101500.28;;;18.62;42.77
19208;BME280;9737;59.466;18.036;2022-07-22T02:05:15;101503.69;;;18.64;42.99
19208;BME280;9737;59.466;18.036;2022-07-22T02:07:45;101484.34;;;18.59;42.96
19208;BME280;9737;59.466;18.036;2022-07-22T02:10:14;101491.44;;;18.60;43.11
19208;BME280;9737;59.466;18.036;2022-07-22T02:12:42;101493.16;;;18.61;43.17
19208;BME280;9737;59.466;18.036;2022-07-22T02:15:13;101502.22;;;18.60;43.41
19208;BME280;9737;59.466;18.036;2022-07-22T02:17:42;101544.25;;;18.72;43.62
19208;BME280;9737;59.466;18.036;2022-07-22T02:20:11;101563.53;;;18.77;43.83
19208;BME280;9737;59.466;18.036;2022-07-22T02:22:40;101581.41;;;18.78;43.62
19208;BME280;9737;59.466;18.036;2022-07-22T02:25:12;101585.72;;;18.81;43.98
19208;BME280;9737;59.466;18.036;2022-07-22T02:27:42;101603.44;;;18.83;44.02
19208;BME280;9737;59.466;18.036;2022-07-22T02:30:11;101624.72;;;18.86;44.12
19208;BME280;9737;59.466;18.036;2022-07-22T02:32:41;101634.38;;;18.89;44.32
19208;BME280;9737;59.466;18.036;2022-07-22T02:35:09;101637.06;;;18.89;44.30
19208;BME280;9737;59.466;18.036;2022-07-22T02:37:39;101777.09;;;19.21;44.58
19208;BME280;9737;59.466;18.036;2022-07-22T02:40:10;101771.00;;;19.19;44.65
19208;BME280;9737;59.466;18.036;2022-07-22T02:42:38;101759.50;;;19.17;44.86
19208;BME280;9737;59.466;18.036;2022-07-22T02:45:08;101751.66;;;19.14;44.82
19208;BME280;9737;59.466;18.036;2022-07-22T02:47:44;101747.41;;;19.11;45.01
19208;BME280;9737;59.466;18.036;2022-07-22T02:50:13;101735.06;;;19.09;45.27
19208;BME280;9737;59.466;18.036;2022-07-22T02:52:40;101742.16;;;19.10;45.16
19208;BME280;9737;59.466;18.036;2022-07-22T02:55:10;101749.50;;;19.08;45.34
19208;BME280;9737;59.466;18.036;2022-07-22T02:57:38;101745.84;;;19.09;45.53
19208;BME280;9737;59.466;18.036;2022-07-22T03:00:07;101737.13;;;19.05;45.57
19208;BME280;9737;59.466;18.036;2022-07-22T03:02:37;101756.63;;;19.09;45.67
19208;BME280;9737;59.466;18.036;2022-07-22T03:05:06;101737.28;;;19.04;45.71
19208;BME280;9737;59.466;18.036;2022-07-22T03:07:34;101737.56;;;19.01;46.00
19208;BME280;9737;59.466;18.036;2022-07-22T03:10:03;101733.00;;;19.01;45.94
19208;BME280;9737;59.466;18.036;2022-07-22T03:12:33;101729.59;;;18.99;46.04
19208;BME280;9737;59.466;18.036;2022-07-22T03:15:01;101729.59;;;18.99;46.18
19208;BME280;9737;59.466;18.036;2022-07-22T03:17:33;101719.09;;;18.96;46.43
19208;BME280;9737;59.466;18.036;2022-07-22T03:20:02;101715.53;;;18.96;46.51
19208;BME280;9737;59.466;18.036;2022-07-22T03:22:31;101727.31;;;18.95;46.71
19208;BME280;9737;59.466;18.036;2022-07-22T03:24:59;101714.97;;;18.92;46.70
19208;BME280;9737;59.466;18.036;2022-07-22T03:27:28;101740.66;;;18.96;46.69
19208;BME280;9737;59.466;18.036;2022-07-22T03:29:57;101747.63;;;18.99;47.01
19208;BME280;9737;59.466;18.036;2022-07-22T03:32:25;101759.97;;;19.01;47.09
19208;BME280;9737;59.466;18.036;2022-07-22T03:34:53;101784.69;;;19.06;47.23
19208;BME280;9737;59.466;18.036;2022-07-22T03:37:29;101805.16;;;19.09;47.23
19208;BME280;9737;59.466;18.036;2022-07-22T03:39:57;101831.59;;;19.15;47.42
19208;BME280;9737;59.466;18.036;2022-07-22T03:42:26;101860.72;;;19.21;47.67
19208;BME280;9737;59.466;18.036;2022-07-22T03:44:54;101881.88;;;19.26;47.68
19208;BME280;9737;59.466;18.036;2022-07-22T03:47:24;101917.13;;;19.34;48.00
19208;BME280;9737;59.466;18.036;2022-07-22T03:49:52;101941.25;;;19.35;48.00
19208;BME280;9737;59.466;18.036;2022-07-22T03:52:20;101976.28;;;19.46;48.14
19208;BME280;9737;59.466;18.036;2022-07-22T03:54:48;102008.88;;;19.55;48.21
19208;BME280;9737;59.466;18.036;2022-07-22T03:57:16;102042.44;;;19.62;48.35
19208;BME280;9737;59.466;18.036;2022-07-22T03:59:44;102134.06;;;19.84;48.46
19208;BME280;9737;59.466;18.036;2022-07-22T04:02:12;102246.25;;;20.09;48.71
19208;BME280;9737;59.466;18.036;2022-07-22T04:04:42;102236.56;;;20.06;48.72
19208;BME280;9737;59.466;18.036;2022-07-22T04:07:10;102263.19;;;20.11;48.78
19208;BME280;9737;59.466;18.036;2022-07-22T04:09:38;102301.06;;;20.21;48.97
19208;BME280;9737;59.466;18.036;2022-07-22T04:12:06;102350.66;;;20.31;49.03
19208;BME280;9737;59.466;18.036;2022-07-22T04:14:34;102375.44;;;20.36;49.25
19208;BME280;9737;59.466;18.036;2022-07-22T04:17:02;102390.53;;;20.38;49.29
19208;BME280;9737;59.466;18.036;2022-07-22T04:19:30;102418.19;;;20.42;49.34
19208;BME280;9737;59.466;18.036;2022-07-22T04:21:59;102442.72;;;20.50;49.60
19208;BME280;9737;59.466;18.036;2022-07-22T04:24:27;102487.19;;;20.57;49.52
19208;BME280;9737;59.466;18.036;2022-07-22T04:26:55;102518.84;;;20.66;49.72
19208;BME280;9737;59.466;18.036;2022-07-22T04:29:24;102541.94;;;20.70;49.85
19208;BME280;9737;59.466;18.036;2022-07-22T04:31:52;102574.72;;;20.77;50.12
19208;BME280;9737;59.466;18.036;2022-07-22T04:34:27;102640.34;;;20.90;50.10
19208;BME280;9737;59.466;18.036;2022-07-22T04:36:56;102685.44;;;21.01;50.21
19208;BME280;9737;59.466;18.036;2022-07-22T04:39:25;102743.97;;;21.13;50.30
19208;BME280;9737;59.466;18.036;2022-07-22T04:41:53;102783.72;;;21.24;50.44
19208;BME280;9737;59.466;18.036;2022-07-22T04:44:21;102822.94;;;21.29;50.59
19208;BME280;9737;59.466;18.036;2022-07-22T04:46:49;102845.19;;;21.33;50.58
19208;BME280;9737;59.466;18.036;2022-07-22T04:49:17;102836.34;;;21.31;50.70
19208;BME280;9737;59.466;18.036;2022-07-22T04:51:45;102863.75;;;21.38;50.92
19208;BME280;9737;59.466;18.036;2022-07-22T04:54:13;102890.38;;;21.44;51.05
19208;BME280;9737;59.466;18.036;2022-07-22T04:56:42;102940.94;;;21.54;51.08
19208;BME280;9737;59.466;18.036;2022-07-22T04:59:11;103029.69;;;21.73;51.13
19208;BME280;9737;59.466;18.036;2022-07-22T05:01:38;103056.28;;;21.79;51.37
19208;BME280;9737;59.466;18.036;2022-07-22T05:04:06;103116.59;;;21.92;51.44
19208;BME280;9737;59.466;18.036;2022-07-22T05:06:34;103166.41;;;22.03;51.62
19208;BME280;9737;59.466;18.036;2022-07-22T05:09:03;103217.91;;;22.14;51.49
19208;BME280;9737;59.466;18.036;2022-07-22T05:11:30;103285.25;;;22.31;51.69
19208;BME280;9737;59.466;18.036;2022-07-22T05:14:00;103361.78;;;22.46;51.66
19208;BME280;9737;59.466;18.036;2022-07-22T05:16:28;103448.66;;;22.68;51.80
19208;BME280;9737;59.466;18.036;2022-07-22T05:18:56;103480.84;;;22.73;52.18
19208;BME280;9737;59.466;18.036;2022-07-22T05:21:24;103521.84;;;22.81;51.95
19208;BME280;9737;59.466;18.036;2022-07-22T05:23:53;103575.44;;;22.90;52.16
19208;BME280;9737;59.466;18.036;2022-07-22T05:26:21;103603.81;;;22.97;52.45
19208;BME280;9737;59.466;18.036;2022-07-22T05:28:52;103665.19;;;23.11;52.62
19208;BME280;9737;59.466;18.036;2022-07-22T05:31:22;103663.56;;;23.08;52.54
19208;BME280;9737;59.466;18.036;2022-07-22T05:33:50;103651.34;;;23.03;52.62
19208;BME280;9737;59.466;18.036;2022-07-22T05:36:18;103643.19;;;23.03;52.48
19208;BME280;9737;59.466;18.036;2022-07-22T05:38:46;103612.94;;;22.96;52.98
19208;BME280;9737;59.466;18.036;2022-07-22T05:41:14;103614.69;;;22.97;52.75
19208;BME280;9737;59.466;18.036;2022-07-22T05:43:42;103615.66;;;22.96;53.04
19208;BME280;9737;59.466;18.036;2022-07-22T05:46:10;103658.38;;;23.05;52.78
19208;BME280;9737;59.466;18.036;2022-07-22T05:48:39;103793.66;;;23.35;52.93
19208;BME280;9737;59.466;18.036;2022-07-22T05:51:11;103889.03;;;23.56;53.05
19208;BME280;9737;59.466;18.036;2022-07-22T05:53:40;103995.91;;;23.81;52.92
19208;BME280;9737;59.466;18.036;2022-07-22T05:56:09;104078.03;;;23.97;53.29
19208;BME280;9737;59.466;18.036;2022-07-22T05:58:37;104135.25;;;24.08;53.07
19208;BME280;9737;59.466;18.036;2022-07-22T06:01:06;104158.41;;;24.14;53.55
19208;BME280;9737;59.466;18.036;2022-07-22T06:03:34;104165.69;;;24.13;53.54
19208;BME280;9737;59.466;18.036;2022-07-22T06:06:04;104182.66;;;24.17;53.74
19208;BME280;9737;59.466;18.036;2022-07-22T06:08:36;104200.47;;;24.21;53.34
19208;BME280;9737;59.466;18.036;2022-07-22T06:11:04;104239.88;;;24.28;53.53
19208;BME280;9737;59.466;18.036;2022-07-22T06:13:32;104264.69;;;24.36;53.60
19208;BME280;9737;59.466;18.036;2022-07-22T06:16:01;104306.91;;;24.42;53.70
19208;BME280;9737;59.466;18.036;2022-07-22T06:18:29;104290.81;;;24.38;53.83
19208;BME280;9737;59.466;18.036;2022-07-22T06:20:57;104385.50;;;24.59;53.92
19208;BME280;9737;59.466;18.036;2022-07-22T06:23:26;104411.28;;;24.66;53.97
19208;BME280;9737;59.466;18.036;2022-07-22T06:25:54;104436.53;;;24.68;53.86
19208;BME280;9737;59.466;18.036;2022-07-22T06:28:22;104472.16;;;24.78;54.15
19208;BME280;9737;59.466;18.036;2022-07-22T06:30:51;104503.50;;;24.83;54.14
19208;BME280;9737;59.466;18.036;2022-07-22T06:33:19;104541.00;;;24.92;54.14
19208;BME280;9737;59.466;18.036;2022-07-22T06:35:47;104572.38;;;24.98;54.10
19208;BME280;9737;59.466;18.036;2022-07-22T06:38:14;104556.34;;;24.93;54.18
19208;BME280;9737;59.466;18.036;2022-07-22T06:40:58;104499.16;;;24.81;54.24
19208;BME280;9737;59.466;18.036;2022-07-22T06:43:26;104501.00;;;24.80;54.22
19208;BME280;9737;59.466;18.036;2022-07-22T06:45:54;104491.09;;;24.79;54.30
19208;BME280;9737;59.466;18.036;2022-07-22T06:48:23;104534.03;;;24.88;54.38
19208;BME280;9737;59.466;18.036;2022-07-22T06:50:51;104554.63;;;24.92;54.30
19208;BME280;9737;59.466;18.036;2022-07-22T06:53:19;104653.91;;;25.14;54.30
19208;BME280;9737;59.466;18.036;2022-07-22T06:55:47;104662.88;;;25.16;54.50
19208;BME280;9737;59.466;18.036;2022-07-22T06:58:17;104616.41;;;25.05;54.40
19208;BME280;9737;59.466;18.036;2022-07-22T07:00:45;104518.09;;;24.82;54.57
19208;BME280;9737;59.466;18.036;2022-07-22T07:03:12;104448.41;;;24.67;54.54
19208;BME280;9737;59.466;18.036;2022-07-22T07:06:02;104393.09;;;24.54;54.25
19208;BME280;9737;59.466;18.036;2022-07-22T07:08:30;104350.22;;;24.45;54.31
19208;BME280;9737;59.466;18.036;2022-07-22T07:10:58;104341.31;;;24.43;54.58
19208;BME280;9737;59.466;18.036;2022-07-22T07:13:29;104349.34;;;24.44;54.44
19208;BME280;9737;59.466;18.036;2022-07-22T07:15:57;104306.59;;;24.33;54.55
19208;BME280;9737;59.466;18.036;2022-07-22T07:18:26;104265.41;;;24.25;54.68
19208;BME280;9737;59.466;18.036;2022-07-22T07:20:54;104246.59;;;24.22;54.34
19208;BME280;9737;59.466;18.036;2022-07-22T07:23:22;104264.66;;;24.23;54.53
19208;BME280;9737;59.466;18.036;2022-07-22T07:25:51;104290.50;;;24.30;54.52
19208;BME280;9737;59.466;18.036;2022-07-22T07:28:19;104343.25;;;24.40;54.66
19208;BME280;9737;59.466;18.036;2022-07-22T07:30:49;104352.19;;;24.43;54.54
19208;BME280;9737;59.466;18.036;2022-07-22T07:33:17;104362.84;;;24.46;54.73
19208;BME280;9737;59.466;18.036;2022-07-22T07:35:45;104428.94;;;24.60;54.60
19208;BME280;9737;59.466;18.036;2022-07-22T07:38:13;104486.97;;;24.74;54.75
19208;BME280;9737;59.466;18.036;2022-07-22T07:40:43;104530.84;;;24.82;54.70
19208;BME280;9737;59.466;18.036;2022-07-22T07:43:11;104574.66;;;24.91;54.75
19208;BME280;9737;59.466;18.036;2022-07-22T07:45:39;104587.19;;;24.94;54.60
19208;BME280;9737;59.466;18.036;2022-07-22T07:48:10;104708.63;;;25.23;54.76
19208;BME280;9737;59.466;18.036;2022-07-22T07:50:38;104770.56;;;25.34;54.78
19208;BME280;9737;59.466;18.036;2022-07-22T07:53:05;104801.75;;;25.43;54.85
19208;BME280;9737;59.466;18.036;2022-07-22T07:55:34;104857.41;;;25.53;54.80
19208;BME280;9737;59.466;18.036;2022-07-22T07:58:05;104891.31;;;25.61;54.73
19208;BME280;9737;59.466;18.036;2022-07-22T08:00:33;104833.41;;;25.45;54.97
19208;BME280;9737;59.466;18.036;2022-07-22T08:03:01;104769.69;;;25.33;54.94
19208;BME280;9737;59.466;18.036;2022-07-22T08:05:34;104641.91;;;25.04;54.97
19208;BME280;9737;59.466;18.036;2022-07-22T08:08:02;104586.41;;;24.92;54.94
19208;BME280;9737;59.466;18.036;2022-07-22T08:10:40;104473.91;;;24.66;54.92
19208;BME280;9737;59.466;18.036;2022-07-22T08:13:25;104361.34;;;24.42;54.78
19208;BME280;9737;59.466;18.036;2022-07-22T08:15:53;104282.72;;;24.24;54.79
19208;BME280;9737;59.466;18.036;2022-07-22T08:18:24;104303.25;;;24.30;54.83
19208;BME280;9737;59.466;18.036;2022-07-22T08:20:53;104318.47;;;24.32;55.07
19208;BME280;9737;59.466;18.036;2022-07-22T08:23:21;104275.53;;;24.23;54.92
19208;BME280;9737;59.466;18.036;2022-07-22T08:25:49;104347.94;;;24.38;54.84
19208;BME280;9737;59.466;18.036;2022-07-22T08:28:17;104356.00;;;24.40;54.94
19208;BME280;9737;59.466;18.036;2022-07-22T08:30:45;104419.34;;;24.55;55.09
19208;BME280;9737;59.466;18.036;2022-07-22T08:33:13;104523.00;;;24.77;55.04
19208;BME280;9737;59.466;18.036;2022-07-22T08:35:41;104551.66;;;24.83;54.93
19208;BME280;9737;59.466;18.036;2022-07-22T08:38:10;104635.69;;;25.01;54.95
19208;BME280;9737;59.466;18.036;2022-07-22T08:40:39;104631.22;;;25.00;54.97
19208;BME280;9737;59.466;18.036;2022-07-22T08:43:07;104631.22;;;25.00;55.07
19208;BME280;9737;59.466;18.036;2022-07-22T08:45:35;104559.81;;;24.83;54.91
19208;BME280;9737;59.466;18.036;2022-07-22T08:48:03;104571.28;;;24.88;54.99
19208;BME280;9737;59.466;18.036;2022-07-22T08:50:33;104601.69;;;24.94;54.97
19208;BME280;9737;59.466;18.036;2022-07-22T08:53:02;104674.16;;;25.10;54.99
19208;BME280;9737;59.466;18.036;2022-07-22T08:55:31;104763.56;;;25.30;55.10
19208;BME280;9737;59.466;18.036;2022-07-22T08:57:59;104728.81;;;25.21;55.00
19208;BME280;9737;59.466;18.036;2022-07-22T09:00:27;104698.47;;;25.13;55.00
19208;BME280;9737;59.466;18.036;2022-07-22T09:02:55;104643.00;;;25.01;55.07
19208;BME280;9737;59.466;18.036;2022-07-22T09:05:32;104700.09;;;25.15;55.07
19208;BME280;9737;59.466;18.036;2022-07-22T09:08:11;104469.53;;;24.63;55.24
19208;BME280;9737;59.466;18.036;2022-07-22T09:10:40;104284.69;;;24.22;55.07
19208;BME280;9737;59.466;18.036;2022-07-22T09:13:09;104158.97;;;23.93;55.18
19208;BME280;9737;59.466;18.036;2022-07-22T09:15:39;104096.47;;;23.81;55.07
19208;BME280;9737;59.466;18.036;2022-07-22T09:18:13;104085.84;;;23.77;55.06
19208;BME280;9737;59.466;18.036;2022-07-22T09:20:41;104154.41;;;23.94;55.00
19208;BME280;9737;59.466;18.036;2022-07-22T09:23:11;104141.78;;;23.93;55.23
19208;BME280;9737;59.466;18.036;2022-07-22T09:25:41;104275.78;;;24.20;55.18
19208;BME280;9737;59.466;18.036;2022-07-22T09:28:14;104476.72;;;24.64;55.05
19208;BME280;9737;59.466;18.036;2022-07-22T09:30:47;104531.16;;;24.77;55.09
19208;BME280;9737;59.466;18.036;2022-07-22T09:33:19;104438.28;;;24.56;54.97
19208;BME280;9737;59.466;18.036;2022-07-22T09:35:49;104610.81;;;24.93;54.93
19208;BME280;9737;59.466;18.036;2022-07-22T09:38:18;104637.56;;;25.01;55.01
19208;BME280;9737;59.466;18.036;2022-07-22T09:40:48;104685.94;;;25.10;54.80
19208;BME280;9737;59.466;18.036;2022-07-22T09:43:19;104643.00;;;25.01;55.16
19208;BME280;9737;59.466;18.036;2022-07-22T09:45:49;104700.09;;;25.15;55.04
19208;BME280;9737;59.466;18.036;2022-07-22T09:48:19;104760.97;;;25.28;55.13
19208;BME280;9737;59.466;18.036;2022-07-22T09:50:48;105008.16;;;25.82;55.08
19208;BME280;9737;59.466;18.036;2022-07-22T09:53:18;105097.78;;;26.01;55.03
19208;BME280;9737;59.466;18.036;2022-07-22T09:55:48;105211.63;;;26.25;55.12
19208;BME280;9737;59.466;18.036;2022-07-22T09:58:16;105308.53;;;26.47;55.12
19208;BME280;9737;59.466;18.036;2022-07-22T10:00:44;105332.81;;;26.51;55.50
19208;BME280;9737;59.466;18.036;2022-07-22T10:03:17;105381.28;;;26.62;55.17
19208;BME280;9737;59.466;18.036;2022-07-22T10:05:46;105190.22;;;26.19;55.41
19208;BME280;9737;59.466;18.036;2022-07-22T10:08:14;105099.63;;;26.00;55.18
19208;BME280;9737;59.466;18.036;2022-07-22T10:10:42;104938.44;;;25.63;55.22
19208;BME280;9737;59.466;18.036;2022-07-22T10:13:12;104721.81;;;25.17;55.20
19208;BME280;9737;59.466;18.036;2022-07-22T10:15:40;104608.09;;;24.93;55.17
19208;BME280;9737;59.466;18.036;2022-07-22T10:18:14;104429.47;;;24.53;55.31
19208;BME280;9737;59.466;18.036;2022-07-22T10:20:44;104380.38;;;24.42;55.13
19208;BME280;9737;59.466;18.036;2022-07-22T10:23:12;104440.91;;;24.58;54.90
19208;BME280;9737;59.466;18.036;2022-07-22T10:25:51;104417.69;;;24.52;54.96
19208;BME280;9737;59.466;18.036;2022-07-22T10:28:24;104238.38;;;24.11;54.93
19208;BME280;9737;59.466;18.036;2022-07-22T10:30:53;104191.81;;;24.03;55.14
19208;BME280;9737;59.466;18.036;2022-07-22T10:33:21;104103.75;;;23.80;54.74
19208;BME280;9737;59.466;18.036;2022-07-22T10:35:55;103948.72;;;23.45;55.04
19208;BME280;9737;59.466;18.036;2022-07-22T10:38:24;103785.63;;;23.10;55.07
19208;BME280;9737;59.466;18.036;2022-07-22T10:40:54;103695.59;;;22.92;55.01
19208;BME280;9737;59.466;18.036;2022-07-22T10:43:24;103590.81;;;22.66;54.91
19208;BME280;9737;59.466;18.036;2022-07-22T10:45:54;103494.81;;;22.44;54.89
19208;BME280;9737;59.466;18.036;2022-07-22T10:48:25;103429.91;;;22.30;54.95
19208;BME280;9737;59.466;18.036;2022-07-22T10:51:12;103421.91;;;22.29;54.89
19208;BME280;9737;59.466;18.036;2022-07-22T10:53:43;103334.97;;;22.08;54.78
19208;BME280;9737;59.466;18.036;2022-07-22T10:56:17;103327.06;;;22.05;54.87
19208;BME280;9737;59.466;18.036;2022-07-22T10:58:55;103300.28;;;22.00;54.64
19208;BME280;9737;59.466;18.036;2022-07-22T11:01:27;103285.13;;;21.98;54.66
19208;BME280;9737;59.466;18.036;2022-07-22T11:04:07;103236.31;;;21.86;54.70
19208;BME280;9737;59.466;18.036;2022-07-22T11:06:44;103207.13;;;21.79;54.83
19208;BME280;9737;59.466;18.036;2022-07-22T11:09:13;103116.06;;;21.54;54.91
19208;BME280;9737;59.466;18.036;2022-07-22T11:11:44;103036.81;;;21.41;54.74
19208;BME280;9737;59.466;18.036;2022-07-22T11:14:17;103020.78;;;21.38;54.68
19208;BME280;9737;59.466;18.036;2022-07-22T11:16:48;103010.19;;;21.34;54.72
19208;BME280;9737;59.466;18.036;2022-07-22T11:19:20;102965.13;;;21.22;54.70
19208;BME280;9737;59.466;18.036;2022-07-22T11:21:51;102957.13;;;21.21;54.70
19208;BME280;9737;59.466;18.036;2022-07-22T11:24:19;102942.00;;;21.18;54.68
19208;BME280;9737;59.466;18.036;2022-07-22T11:26:49;102929.69;;;21.14;54.71
19208;BME280;9737;59.466;18.036;2022-07-22T11:29:25;102931.44;;;21.15;54.76
19208;BME280;9737;59.466;18.036;2022-07-22T11:31:55;102903.09;;;21.08;54.80
19208;BME280;9737;59.466;18.036;2022-07-22T11:34:24;102881.72;;;21.05;54.88
19208;BME280;9737;59.466;18.036;2022-07-22T11:36:53;102972.03;;;21.26;54.81
19208;BME280;9737;59.466;18.036;2022-07-22T11:39:22;103018.31;;;21.34;54.83
19208;BME280;9737;59.466;18.036;2022-07-22T11:41:53;102980.03;;;21.28;54.99
19208;BME280;9737;59.466;18.036;2022-07-22T11:44:26;102943.00;;;21.17;54.94
19208;BME280;9737;59.466;18.036;2022-07-22T11:46:55;102911.97;;;21.10;55.01
19208;BME280;9737;59.466;18.036;2022-07-22T11:49:26;102868.53;;;21.00;55.06
19208;BME280;9737;59.466;18.036;2022-07-22T11:51:54;102888.09;;;21.04;55.02
19208;BME280;9737;59.466;18.036;2022-07-22T11:54:22;102924.53;;;21.11;55.14
19208;BME280;9737;59.466;18.036;2022-07-22T11:56:50;102970.53;;;21.22;55.13
19208;BME280;9737;59.466;18.036;2022-07-22T11:59:25;103033.44;;;21.37;55.09
19208;BME280;9737;59.466;18.036;2022-07-22T12:01:53;103006.88;;;21.31;55.31
19208;BME280;9737;59.466;18.036;2022-07-22T12:04:23;103032.38;;;21.40;55.12
19208;BME280;9737;59.466;18.036;2022-07-22T12:06:52;103048.50;;;21.41;55.34
19208;BME280;9737;59.466;18.036;2022-07-22T12:09:24;103073.22;;;21.48;55.37
19208;BME280;9737;59.466;18.036;2022-07-22T12:11:54;103071.75;;;21.44;55.18
19208;BME280;9737;59.466;18.036;2022-07-22T12:14:28;103013.88;;;21.33;55.36
19208;BME280;9737;59.466;18.036;2022-07-22T12:16:58;102951.22;;;21.16;55.48
19208;BME280;9737;59.466;18.036;2022-07-22T12:19:30;102932.53;;;21.13;55.42
19208;BME280;9737;59.466;18.036;2022-07-22T12:22:01;102921.06;;;21.09;55.38
19208;BME280;9737;59.466;18.036;2022-07-22T12:24:30;102967.22;;;21.19;55.42
19208;BME280;9737;59.466;18.036;2022-07-22T12:27:00;102980.41;;;21.23;55.37
19208;BME280;9737;59.466;18.036;2022-07-22T12:29:40;103040.84;;;21.35;55.57
19208;BME280;9737;59.466;18.036;2022-07-22T12:32:11;103094.91;;;21.48;55.62
19208;BME280;9737;59.466;18.036;2022-07-22T12:34:43;103089.47;;;21.48;55.62
19208;BME280;9737;59.466;18.036;2022-07-22T12:37:14;103046.00;;;21.38;55.78
19208;BME280;9737;59.466;18.036;2022-07-22T12:39:56;102988.53;;;21.23;55.72
19208;BME280;9737;59.466;18.036;2022-07-22T12:42:26;102945.06;;;21.14;55.67
19208;BME280;9737;59.466;18.036;2022-07-22T12:45:00;102958.47;;;21.15;55.84
19208;BME280;9737;59.466;18.036;2022-07-22T12:47:48;102909.75;;;21.04;55.92
19208;BME280;9737;59.466;18.036;2022-07-22T12:50:21;102883.19;;;20.98;55.81
19208;BME280;9737;59.466;18.036;2022-07-22T12:52:52;102832.78;;;20.86;55.91
19208;BME280;9737;59.466;18.036;2022-07-22T12:55:43;102783.22;;;20.74;55.88
19208;BME280;9737;59.466;18.036;2022-07-22T12:58:12;102790.34;;;20.75;56.04
19208;BME280;9737;59.466;18.036;2022-07-22T13:00:47;102780.75;;;20.71;56.01
19208;BME280;9737;59.466;18.036;2022-07-22T13:03:18;102796.59;;;20.76;56.01
19208;BME280;9737;59.466;18.036;2022-07-22T13:05:47;102757.66;;;20.67;56.08